createdAt,value
2022-08-09T00:00:07.967Z,40.19
2022-08-09T00:02:49.301Z,40.17
2022-08-09T00:06:17.779Z,40.32
2022-08-09T00:08:11.389Z,40.10
2022-08-09T00:10:58.828Z,40.18
2022-08-09T00:13:25.532Z,40.31
2022-08-09T00:15:59.799Z,40.41
2022-08-09T00:18:34.611Z,40.38
2022-08-09T00:21:05.002Z,40.43
2022-08-09T00:23:58.135Z,40.74
2022-08-09T00:26:19.351Z,40.42
2022-08-09T00:28:58.393Z,40.87
2022-08-09T00:31:55.749Z,40.69
2022-08-09T00:34:13.667Z,40.72
2022-08-09T00:36:41.617Z,40.96
2022-08-09T00:39:16.957Z,40.76
2022-08-09T00:44:10.959Z,40.86
2022-08-09T00:44:46.860Z,40.96
2022-08-09T00:47:15.502Z,40.79
2022-08-09T00:49:43.684Z,40.98
2022-08-09T00:52:19.691Z,40.76
2022-08-09T00:54:48.567Z,41.02
2022-08-09T00:57:24.796Z,40.89
2022-08-09T01:00:02.975Z,40.93
2022-08-09T01:02:33.943Z,41.01
2022-08-09T01:05:51.570Z,41.73
2022-08-09T01:08:48.865Z,41.43
2022-08-09T01:11:53.076Z,41.81
2022-08-09T01:14:25.157Z,41.22
2022-08-09T01:16:58.882Z,41.36
2022-08-09T01:20:02.618Z,41.77
2022-08-09T01:23:00.832Z,41.76
2022-08-09T01:25:55.998Z,42.04
2022-08-09T01:28:26.006Z,41.69
2022-08-09T01:30:55.561Z,41.84
2022-08-09T01:33:29.879Z,41.96
2022-08-09T01:36:05.567Z,42.36
2022-08-09T01:38:38.491Z,41.93
2022-08-09T01:41:14.892Z,41.72
2022-08-09T01:43:51.799Z,41.85
2022-08-09T01:46:42.483Z,42.06
2022-08-09T01:49:17.018Z,42.04
2022-08-09T01:51:53.117Z,41.69
2022-08-09T01:54:39.487Z,42.22
2022-08-09T01:57:14.849Z,41.73
2022-08-09T01:59:51.919Z,41.81
2022-08-09T02:02:23.141Z,42.06
2022-08-09T02:05:04.052Z,41.80
2022-08-09T02:08:38.900Z,42.11
2022-08-09T02:10:30.041Z,42.03
2022-08-09T02:13:04.159Z,41.92
2022-08-09T02:15:48.748Z,42.06
2022-08-09T02:18:20.621Z,42.19
2022-08-09T02:21:00.273Z,42.38
2022-08-09T02:23:40.120Z,42.14
2022-08-09T02:26:26.846Z,42.25
2022-08-09T02:28:59.633Z,42.04
2022-08-09T02:31:37.807Z,42.25
2022-08-09T02:34:13.175Z,42.31
2022-08-09T02:36:47.021Z,42.24
2022-08-09T02:39:33.801Z,42.48
2022-08-09T02:42:10.580Z,42.24
2022-08-09T02:44:48.289Z,42.61
2022-08-09T02:47:17.511Z,42.30
2022-08-09T02:50:06.307Z,42.50
2022-08-09T02:53:05.063Z,43.13
2022-08-09T02:55:46.126Z,42.47
2022-08-09T02:58:35.388Z,42.56
2022-08-09T03:01:08.103Z,42.44
2022-08-09T03:03:59.619Z,42.97
2022-08-09T03:06:27.706Z,42.57
2022-08-09T03:08:56.380Z,42.67
2022-08-09T03:12:05.239Z,42.73
2022-08-09T03:14:12.084Z,43.04
2022-08-09T03:16:41.995Z,43.29
2022-08-09T03:19:59.239Z,42.97
2022-08-09T03:22:04.646Z,43.13
2022-08-09T03:24:42.584Z,43.36
2022-08-09T03:27:21.517Z,43.38
2022-08-09T03:29:57.958Z,43.38
2022-08-09T03:32:31.118Z,43.41
2022-08-09T03:34:59.692Z,43.56
2022-08-09T03:37:58.302Z,43.63
2022-08-09T03:40:17.934Z,43.84
2022-08-09T03:42:46.683Z,43.71
2022-08-09T03:45:14.193Z,43.75
2022-08-09T03:47:46.823Z,43.89
2022-08-09T03:50:18.712Z,43.87
2022-08-09T03:52:58.144Z,43.97
2022-08-09T03:55:26.996Z,44.05
2022-08-09T03:58:06.561Z,43.81
2022-08-09T04:00:44.314Z,44.23
2022-08-09T04:03:15.359Z,43.88
2022-08-09T04:05:51.811Z,44.24
2022-08-09T04:08:18.472Z,44.18
2022-08-09T04:10:55.651Z,44.59
2022-08-09T04:14:37.762Z,44.49
2022-08-09T04:16:19.441Z,44.39
2022-08-09T04:18:47.962Z,44.34
2022-08-09T04:21:17.750Z,44.47
2022-08-09T04:23:54.496Z,44.56
2022-08-09T04:26:37.876Z,44.93
2022-08-09T04:29:10.915Z,45.01
2022-08-09T04:31:47.260Z,45.02
2022-08-09T04:34:18.970Z,45.11
2022-08-09T04:36:57.543Z,45.25
2022-08-09T04:39:24.362Z,45.48
2022-08-09T04:41:51.443Z,45.29
2022-08-09T04:44:18.426Z,45.59
2022-08-09T04:46:58.539Z,45.52
2022-08-09T04:49:40.070Z,45.52
2022-08-09T04:52:18.539Z,45.72
2022-08-09T04:54:53.322Z,45.80
2022-08-09T04:57:21.491Z,46.01
2022-08-09T04:59:51.508Z,45.83
2022-08-09T05:02:18.915Z,45.61
2022-08-09T05:04:47.319Z,45.92
2022-08-09T05:07:19.385Z,46.01
2022-08-09T05:09:50.047Z,46.14
2022-08-09T05:12:17.532Z,46.17
2022-08-09T05:14:45.274Z,46.23
2022-08-09T05:17:15.349Z,46.28
2022-08-09T05:19:59.183Z,46.31
2022-08-09T05:22:33.356Z,46.41
2022-08-09T05:25:05.213Z,46.83
2022-08-09T05:27:32.053Z,46.97
2022-08-09T05:29:58.960Z,46.68
2022-08-09T05:32:26.674Z,46.74
2022-08-09T05:34:57.055Z,46.53
2022-08-09T05:37:23.979Z,46.80
2022-08-09T05:39:52.511Z,46.65
2022-08-09T05:42:21.930Z,46.38
2022-08-09T05:44:55.879Z,46.41
2022-08-09T05:47:25.338Z,46.57
2022-08-09T05:50:28.090Z,46.68
2022-08-09T05:52:44.368Z,46.35
2022-08-09T05:55:21.253Z,46.35
2022-08-09T05:57:56.904Z,46.32
2022-08-09T06:00:28.793Z,46.04
2022-08-09T06:03:00.406Z,45.88
2022-08-09T06:05:31.232Z,45.81
2022-08-09T06:08:19.507Z,45.35
2022-08-09T06:10:51.504Z,45.03
2022-08-09T06:13:20.845Z,45.30
2022-08-09T06:15:51.361Z,45.05
2022-08-09T06:18:19.555Z,45.21
2022-08-09T06:20:54.139Z,44.96
2022-08-09T06:23:55.577Z,45.08
2022-08-09T06:26:20.200Z,44.90
2022-08-09T06:28:47.472Z,44.70
2022-08-09T06:31:14.307Z,44.67
2022-08-09T06:33:42.076Z,44.50
2022-08-09T06:36:15.385Z,44.54
2022-08-09T06:38:49.895Z,44.07
2022-08-09T06:41:19.219Z,44.17
2022-08-09T06:43:48.605Z,43.76
2022-08-09T06:46:39.127Z,43.21
2022-08-09T06:49:04.877Z,43.53
2022-08-09T06:51:33.739Z,43.34
2022-08-09T06:54:09.134Z,43.09
2022-08-09T06:56:45.434Z,42.92
2022-08-09T07:00:51.343Z,42.46
2022-08-09T07:02:03.767Z,41.59
2022-08-09T07:04:32.222Z,40.43
2022-08-09T07:07:00.091Z,37.45
2022-08-09T07:09:57.375Z,35.37
2022-08-09T07:12:18.777Z,33.18
2022-08-09T07:14:51.013Z,30.36
2022-08-09T07:17:20.082Z,29.28
2022-08-09T07:19:48.243Z,27.69
2022-08-09T07:22:18.721Z,27.46
2022-08-09T07:25:05.595Z,26.08
2022-08-09T07:27:43.227Z,25.73
2022-08-09T07:30:21.794Z,26.15
2022-08-09T07:32:52.138Z,25.67
2022-08-09T07:35:19.335Z,24.75
2022-08-09T07:37:47.963Z,23.83
2022-08-09T07:40:20.356Z,22.68
2022-08-09T07:42:54.915Z,22.77
2022-08-09T07:45:37.367Z,21.92
2022-08-09T07:48:08.262Z,21.73
2022-08-09T07:51:02.976Z,20.80
2022-08-09T07:54:05.178Z,20.55
2022-08-09T07:56:27.445Z,19.84
2022-08-09T07:58:55.678Z,19.67
2022-08-09T08:01:33.814Z,19.34
2022-08-09T08:04:03.051Z,18.43
2022-08-09T08:06:32.708Z,17.95
2022-08-09T08:09:05.336Z,18.09
2022-08-09T08:12:12.144Z,17.92
2022-08-09T08:14:33.112Z,17.76
2022-08-09T08:17:07.883Z,17.27
2022-08-09T08:19:38.816Z,17.50
2022-08-09T08:22:05.776Z,17.61
2022-08-09T08:24:40.609Z,16.22
2022-08-09T08:27:16.683Z,17.46
2022-08-09T08:29:48.542Z,17.43
2022-08-09T08:32:19.031Z,16.63
2022-08-09T08:34:55.548Z,16.09
2022-08-09T08:37:41.548Z,15.70
2022-08-09T08:40:13.941Z,15.57
2022-08-09T08:42:43.633Z,15.11
2022-08-09T08:45:16.659Z,14.79
2022-08-09T08:47:45.345Z,14.14
2022-08-09T08:50:18.274Z,13.63
2022-08-09T08:52:59.015Z,13.83
2022-08-09T08:55:27.890Z,13.32
2022-08-09T08:57:58.569Z,13.34
2022-08-09T09:00:30.483Z,13.40
2022-08-09T09:03:11.068Z,13.34
2022-08-09T09:06:00.468Z,12.85
2022-08-09T09:08:37.972Z,12.88
2022-08-09T09:11:17.683Z,12.40
2022-08-09T09:13:57.528Z,13.28
2022-08-09T09:16:34.063Z,12.86
2022-08-09T09:22:03.639Z,13.34
2022-08-09T09:24:34.717Z,13.58
2022-08-09T09:27:03.238Z,13.80
2022-08-09T09:29:58.011Z,12.96
2022-08-09T09:32:34.397Z,11.66
2022-08-09T09:35:15.676Z,11.86
2022-08-09T09:37:45.908Z,11.78
2022-08-09T09:40:13.169Z,11.93
2022-08-09T09:42:46.083Z,11.96
2022-08-09T09:45:14.505Z,12.08
2022-08-09T09:47:58.314Z,15.25
2022-08-09T09:50:51.214Z,16.55
2022-08-09T09:53:43.680Z,18.09
2022-08-09T09:56:19.882Z,15.56
2022-08-09T09:58:56.407Z,15.21
2022-08-09T10:01:37.451Z,14.59
2022-08-09T10:04:15.990Z,14.64
2022-08-09T10:06:51.779Z,15.75
2022-08-09T10:09:27.542Z,16.99
2022-08-09T10:12:14.748Z,15.01
2022-08-09T10:14:48.401Z,14.28
2022-08-09T10:17:51.134Z,15.25
2022-08-09T10:20:17.398Z,14.80
2022-08-09T10:23:00.015Z,17.08
2022-08-09T10:25:34.906Z,18.62
2022-08-09T10:28:14.999Z,18.84
2022-08-09T10:32:21.030Z,17.11
2022-08-09T10:34:09.951Z,16.55
2022-08-09T10:36:22.199Z,16.94
2022-08-09T10:38:56.415Z,18.59
2022-08-09T10:41:26.787Z,19.97
2022-08-09T10:43:59.487Z,20.79
2022-08-09T10:47:03.999Z,20.21
2022-08-09T10:50:09.862Z,20.04
2022-08-09T10:53:10.716Z,20.76
2022-08-09T10:55:58.539Z,21.98
2022-08-09T10:58:34.557Z,17.99
2022-08-09T11:03:11.028Z,17.71
2022-08-09T11:04:31.645Z,16.80
2022-08-09T11:07:00.214Z,15.03
2022-08-09T11:09:48.217Z,12.96
2022-08-09T11:12:21.856Z,12.83
2022-08-09T11:14:57.629Z,11.42
2022-08-09T11:17:27.253Z,11.13
2022-08-09T11:20:22.101Z,10.77
2022-08-09T11:22:55.758Z,13.97
2022-08-09T11:25:44.694Z,16.04
2022-08-09T11:28:53.999Z,17.03
2022-08-09T11:31:39.764Z,19.19
2022-08-09T11:34:20.402Z,19.13
2022-08-09T11:36:48.933Z,19.50
2022-08-09T11:39:16.662Z,20.33
2022-08-09T11:41:43.689Z,19.74
2022-08-09T11:44:12.087Z,17.99
2022-08-09T11:46:58.087Z,18.84
2022-08-09T11:50:54.037Z,19.18
2022-08-09T11:53:16.061Z,19.91
2022-08-09T11:55:53.343Z,19.80
2022-08-09T11:58:30.110Z,18.22
2022-08-09T12:01:09.058Z,16.79
2022-08-09T12:03:59.213Z,15.20
2022-08-09T12:06:32.532Z,16.57
2022-08-09T12:09:15.237Z,17.36
2022-08-09T12:12:04.258Z,16.06
2022-08-09T12:14:41.007Z,14.63
2022-08-09T12:17:27.640Z,14.00
2022-08-09T12:20:04.176Z,15.04
2022-08-09T12:22:31.628Z,16.44
2022-08-09T12:25:15.924Z,17.45
2022-08-09T12:29:12.529Z,18.64
2022-08-09T12:30:36.162Z,18.02
2022-08-09T12:33:07.331Z,16.96
2022-08-09T12:35:40.787Z,15.46
2022-08-09T12:38:29.601Z,14.89
2022-08-09T12:41:04.804Z,15.37
2022-08-09T12:44:06.007Z,16.49
2022-08-09T12:46:25.641Z,17.42
2022-08-09T12:48:55.522Z,18.55
2022-08-09T12:51:52.618Z,19.03
2022-08-09T12:54:13.169Z,19.63
2022-08-09T12:56:51.231Z,19.83
2022-08-09T12:59:23.189Z,20.66
2022-08-09T13:01:59.112Z,20.58
2022-08-09T13:04:37.794Z,21.50
2022-08-09T13:07:19.697Z,20.72
2022-08-09T13:09:55.714Z,20.92
2022-08-09T13:12:28.206Z,21.16
2022-08-09T13:15:07.721Z,21.61
2022-08-09T13:18:03.480Z,21.27
2022-08-09T13:21:03.764Z,21.74
2022-08-09T13:24:16.966Z,21.50
2022-08-09T13:26:37.582Z,21.68
2022-08-09T13:29:08.859Z,22.95
2022-08-09T13:32:16.054Z,21.49
2022-08-09T13:34:42.258Z,21.34
2022-08-09T13:37:09.202Z,21.54
2022-08-09T13:41:46.061Z,21.38
2022-08-09T13:42:26.591Z,22.17
2022-08-09T13:44:53.677Z,22.19
2022-08-09T13:47:33.151Z,22.41
2022-08-09T13:50:18.154Z,21.85
2022-08-09T13:52:57.172Z,22.10
2022-08-09T13:55:24.499Z,22.25
2022-08-09T13:57:59.366Z,22.90
2022-08-09T14:00:28.642Z,22.65
2022-08-09T14:03:03.976Z,22.89
2022-08-09T14:06:01.414Z,23.37
2022-08-09T14:08:31.537Z,24.08
2022-08-09T14:10:59.446Z,23.44
2022-08-09T14:14:15.769Z,23.47
2022-08-09T14:16:17.820Z,23.15
2022-08-09T14:18:50.149Z,23.01
2022-08-09T14:21:23.307Z,23.14
2022-08-09T14:23:57.103Z,22.52
2022-08-09T14:26:30.128Z,23.33
2022-08-09T14:29:00.813Z,23.59
2022-08-09T14:31:35.927Z,23.84
2022-08-09T14:34:17.349Z,22.97
2022-08-09T14:36:44.469Z,23.28
2022-08-09T14:39:11.593Z,22.69
2022-08-09T14:41:41.781Z,22.88
2022-08-09T14:44:09.641Z,23.42
2022-08-09T14:47:03.190Z,23.35
2022-08-09T14:49:26.874Z,23.23
2022-08-09T14:51:58.860Z,23.71
2022-08-09T14:54:28.309Z,23.17
2022-08-09T14:56:58.962Z,23.33
2022-08-09T14:59:28.892Z,23.18
2022-08-09T15:01:57.017Z,23.64
2022-08-09T15:04:25.555Z,22.94
2022-08-09T15:10:03.479Z,23.88
2022-08-09T15:12:25.110Z,23.60
2022-08-09T15:14:54.490Z,23.61
2022-08-09T15:17:21.339Z,23.76
2022-08-09T15:19:59.768Z,24.13
2022-08-09T15:22:29.312Z,24.44
2022-08-09T15:24:55.990Z,24.38
2022-08-09T15:27:22.752Z,24.42
2022-08-09T15:30:55.521Z,24.35
2022-08-09T15:32:36.526Z,24.11
2022-08-09T15:35:18.257Z,24.17
2022-08-09T15:37:57.146Z,24.16
2022-08-09T15:40:43.644Z,24.54
2022-08-09T15:43:14.009Z,24.21
2022-08-09T15:46:07.616Z,24.55
2022-08-09T15:48:30.623Z,24.81
2022-08-09T15:51:01.131Z,25.04
2022-08-09T15:54:04.972Z,25.34
2022-08-09T15:56:29.408Z,24.83
2022-08-09T15:58:58.670Z,24.88
2022-08-09T16:01:25.839Z,24.70
2022-08-09T16:03:52.649Z,25.18
2022-08-09T16:06:35.326Z,24.64
2022-08-09T16:09:05.877Z,24.83
2022-08-09T16:11:33.766Z,24.98
2022-08-09T16:14:06.859Z,24.99
2022-08-09T16:16:42.060Z,24.79
2022-08-09T16:19:13.839Z,25.07
2022-08-09T16:21:41.671Z,25.11
2022-08-09T16:24:20.115Z,25.15
2022-08-09T16:27:00.108Z,25.43
2022-08-09T16:29:37.984Z,25.55
2022-08-09T16:32:35.233Z,25.75
2022-08-09T16:35:02.920Z,25.79
2022-08-09T16:37:54.963Z,25.96
2022-08-09T16:40:29.768Z,26.00
2022-08-09T16:43:09.774Z,26.45
2022-08-09T16:45:41.710Z,26.48
2022-08-09T16:48:39.961Z,26.39
2022-08-09T16:50:59.692Z,27.01
2022-08-09T16:53:36.711Z,27.13
2022-08-09T16:56:10.072Z,27.47
2022-08-09T16:58:39.587Z,27.16
2022-08-09T17:01:09.963Z,27.54
2022-08-09T17:03:37.586Z,27.28
2022-08-09T17:06:28.135Z,27.82
2022-08-09T17:09:04.856Z,27.42
2022-08-09T17:11:42.470Z,27.61
2022-08-09T17:14:26.676Z,27.34
2022-08-09T17:17:02.186Z,27.37
2022-08-09T17:19:47.542Z,27.62
2022-08-09T17:22:25.130Z,27.44
2022-08-09T17:25:03.216Z,27.59
2022-08-09T17:27:34.450Z,27.90
2022-08-09T17:30:07.200Z,28.06
2022-08-09T17:32:44.183Z,27.82
2022-08-09T17:35:13.214Z,28.28
2022-08-09T17:38:14.445Z,28.49
2022-08-09T17:40:33.244Z,28.54
2022-08-09T17:43:11.210Z,28.34
2022-08-09T17:46:02.919Z,28.76
2022-08-09T17:48:32.099Z,28.80
2022-08-09T17:51:08.943Z,28.78
2022-08-09T17:53:52.175Z,29.15
2022-08-09T17:56:27.589Z,29.43
2022-08-09T17:59:01.089Z,29.73
2022-08-09T18:02:03.475Z,29.75
2022-08-09T18:04:19.632Z,29.89
2022-08-09T18:06:54.631Z,29.81
2022-08-09T18:09:40.090Z,30.36
2022-08-09T18:12:19.486Z,30.22
2022-08-09T18:14:53.805Z,30.33
2022-08-09T18:18:02.550Z,30.63
2022-08-09T18:21:01.752Z,30.59
2022-08-09T18:23:05.146Z,30.77
2022-08-09T18:25:50.562Z,30.76
2022-08-09T18:30:42.518Z,31.04
2022-08-09T18:31:09.117Z,30.81
2022-08-09T18:33:36.306Z,30.88
2022-08-09T18:36:03.755Z,31.43
2022-08-09T18:38:30.554Z,31.17
2022-08-09T18:40:58.448Z,31.40
2022-08-09T18:43:25.488Z,31.92
2022-08-09T18:46:49.338Z,31.73
2022-08-09T18:48:42.511Z,31.53
2022-08-09T18:51:09.579Z,31.28
2022-08-09T18:53:56.515Z,31.23
2022-08-09T18:56:27.111Z,31.48
2022-08-09T18:58:56.492Z,31.20
2022-08-09T19:01:24.130Z,31.43
2022-08-09T19:04:00.849Z,31.44
2022-08-09T19:06:33.122Z,31.28
2022-08-09T19:09:03.111Z,31.41
2022-08-09T19:11:38.022Z,31.44
2022-08-09T19:14:08.129Z,31.73
2022-08-09T19:16:37.977Z,31.63
2022-08-09T19:19:23.501Z,31.60
2022-08-09T19:22:04.913Z,31.72
2022-08-09T19:24:38.274Z,31.76
2022-08-09T19:27:28.364Z,32.21
2022-08-09T19:30:21.119Z,32.09
2022-08-09T19:32:45.528Z,31.96
2022-08-09T19:35:16.709Z,32.16
2022-08-09T19:37:56.065Z,32.09
2022-08-09T19:40:33.375Z,32.17
2022-08-09T19:43:05.403Z,32.43
2022-08-09T19:45:39.206Z,32.60
2022-08-09T19:48:11.849Z,32.66
2022-08-09T19:50:49.031Z,32.68
2022-08-09T19:53:20.954Z,32.74
2022-08-09T19:56:05.939Z,32.97
2022-08-09T19:58:34.902Z,33.12
2022-08-09T20:01:03.270Z,32.76
2022-08-09T20:04:16.900Z,32.96
2022-08-09T20:06:22.429Z,33.10
2022-08-09T20:08:57.145Z,33.35
2022-08-09T20:11:26.721Z,33.49
2022-08-09T20:13:55.338Z,33.33
2022-08-09T20:16:37.094Z,33.54
2022-08-09T20:19:47.649Z,33.47
2022-08-09T20:22:00.306Z,33.35
2022-08-09T20:24:29.447Z,33.55
2022-08-09T20:27:02.604Z,33.65
2022-08-09T20:29:37.736Z,33.62
2022-08-09T20:32:28.627Z,33.55
2022-08-09T20:34:57.510Z,33.74
2022-08-09T20:37:24.348Z,33.71
2022-08-09T20:40:16.632Z,33.83
2022-08-09T20:42:38.236Z,33.73
2022-08-09T20:46:01.488Z,33.75
2022-08-09T20:47:55.119Z,34.19
2022-08-09T20:50:47.344Z,34.23
2022-08-09T20:53:18.531Z,34.15
2022-08-09T20:56:00.587Z,34.24
2022-08-09T20:58:28.719Z,34.35
2022-08-09T21:01:32.897Z,34.36
2022-08-09T21:05:48.878Z,34.33
2022-08-09T21:07:11.273Z,34.47
2022-08-09T21:13:59.426Z,34.60
2022-08-09T21:16:32.598Z,34.83
2022-08-09T21:25:59.185Z,35.04
2022-08-09T21:28:56.921Z,34.82
2022-08-09T21:31:57.768Z,35.00
2022-08-09T21:35:28.903Z,35.55
2022-08-09T21:39:41.682Z,35.56
2022-08-09T21:42:38.806Z,35.17
2022-08-09T21:45:26.004Z,35.09
2022-08-09T21:47:59.415Z,35.39
2022-08-09T21:50:38.595Z,35.49
2022-08-09T21:53:22.413Z,35.22
2022-08-09T21:55:55.454Z,35.41
2022-08-09T21:58:30.954Z,35.65
2022-08-09T22:00:58.067Z,35.41
2022-08-09T22:03:25.928Z,35.53
2022-08-09T22:05:54.125Z,35.70
2022-08-09T22:08:24.522Z,35.77
2022-08-09T22:11:50.054Z,35.86
2022-08-09T22:13:43.281Z,36.00
2022-08-09T22:16:11.661Z,36.30
2022-08-09T22:18:53.571Z,36.34
2022-08-09T22:21:49.717Z,36.67
2022-08-09T22:24:17.140Z,36.62
2022-08-09T22:26:51.104Z,37.02
2022-08-09T22:29:22.973Z,37.05
2022-08-09T22:31:56.746Z,37.11
2022-08-09T22:34:26.304Z,37.15
2022-08-09T22:36:58.800Z,37.47
2022-08-09T22:39:56.413Z,37.70
2022-08-09T22:42:20.638Z,37.72
2022-08-09T22:45:02.230Z,37.83
2022-08-09T22:48:17.817Z,38.25
2022-08-09T22:50:29.700Z,38.52
2022-08-09T22:52:58.144Z,38.31
2022-08-09T22:55:39.303Z,38.37
2022-08-09T22:58:31.004Z,38.20
2022-08-09T23:01:02.625Z,38.82
2022-08-09T23:04:02.827Z,38.91
2022-08-09T23:06:32.621Z,39.21
2022-08-09T23:09:04.174Z,39.48
2022-08-09T23:11:30.816Z,39.44
2022-08-09T23:13:58.796Z,39.59
2022-08-09T23:16:25.559Z,39.34
2022-08-09T23:18:52.240Z,39.22
2022-08-09T23:21:25.223Z,39.36
2022-08-09T23:24:05.019Z,39.82
2022-08-09T23:26:37.657Z,39.46
2022-08-09T23:29:13.854Z,39.59
2022-08-09T23:31:41.455Z,39.65
2022-08-09T23:34:08.361Z,39.49
2022-08-09T23:36:35.739Z,39.44
2022-08-09T23:39:03.908Z,39.67
2022-08-09T23:41:30.925Z,39.40
2022-08-09T23:43:59.705Z,39.24
2022-08-09T23:46:28.571Z,39.61
2022-08-09T23:48:55.832Z,39.63
2022-08-09T23:51:22.732Z,39.88
2022-08-09T23:53:50.532Z,40.41
2022-08-09T23:56:39.528Z,40.52
2022-08-09T23:59:06.346Z,40.33
